createdAt,value
2023-01-19T00:00:45.742Z,100045.78
2023-01-19T00:03:16.157Z,100047.28
2023-01-19T00:05:43.794Z,100043.34
2023-01-19T00:08:16.419Z,100054.88
2023-01-19T00:10:43.985Z,100056.19
2023-01-19T00:13:10.542Z,100059.81
2023-01-19T00:15:37.208Z,100055.69
2023-01-19T00:18:03.988Z,100056.38
2023-01-19T00:20:32.790Z,100058.88
2023-01-19T00:22:59.572Z,100057.69
2023-01-19T00:25:26.237Z,100053.72
2023-01-19T00:27:52.609Z,100057.13
2023-01-19T00:30:19.085Z,100054.41
2023-01-19T00:32:45.417Z,100062.34
2023-01-19T00:35:11.749Z,100068.59
2023-01-19T00:37:38.157Z,100064.22
2023-01-19T00:40:04.780Z,100066.09
2023-01-19T00:42:40.185Z,100074.03
2023-01-19T00:45:10.904Z,100072.34
2023-01-19T00:47:39.197Z,100082.16
2023-01-19T00:50:06.327Z,100089.47
2023-01-19T00:52:32.680Z,100090.31
2023-01-19T00:54:59.117Z,100093.88
2023-01-19T00:57:27.022Z,100097.59
2023-01-19T00:59:53.373Z,100097.59
2023-01-19T01:02:19.896Z,100096.75
2023-01-19T01:04:46.489Z,100093.88
2023-01-19T01:07:12.951Z,100090.31
2023-01-19T01:09:39.462Z,100102.03
2023-01-19T01:12:06.180Z,100094.88
2023-01-19T01:14:32.606Z,100094.72
2023-01-19T01:16:59.244Z,100098.28
2023-01-19T01:19:25.716Z,100103.69
2023-01-19T01:21:52.143Z,100112.88
2023-01-19T01:24:18.954Z,100106.41
2023-01-19T01:26:45.329Z,100116.41
2023-01-19T01:29:12.151Z,100112.88
2023-01-19T01:31:38.624Z,100122.69
2023-01-19T01:34:05.108Z,100124.34
2023-01-19T01:36:33.503Z,100118.09
2023-01-19T01:39:00.227Z,100110.59
2023-01-19T01:41:27.529Z,100114.53
2023-01-19T01:43:58.322Z,100120.59
2023-01-19T01:46:25.855Z,100126.03
2023-01-19T01:49:04.677Z,100130.25
2023-01-19T01:51:37.320Z,100116.91
2023-01-19T01:54:09.857Z,100125.66
2023-01-19T01:56:38.304Z,100117.53
2023-01-19T01:59:06.614Z,100120.03
2023-01-19T02:01:51.914Z,100128.19
2023-01-19T02:04:18.769Z,100132.59
2023-01-19T02:07:03.665Z,100130.53
2023-01-19T02:09:51.252Z,100128.84
2023-01-19T02:12:36.341Z,100134.28
2023-01-19T02:15:02.773Z,100124.47
2023-01-19T02:17:29.359Z,100125.31
2023-01-19T02:19:56.190Z,100120.03
2023-01-19T02:22:29.730Z,100121.09
2023-01-19T02:24:56.737Z,100120.91
2023-01-19T02:27:23.161Z,100132.59
2023-01-19T02:29:49.551Z,100127.19
2023-01-19T02:32:16.059Z,100123.63
2023-01-19T02:34:42.661Z,100116.34
2023-01-19T02:37:13.109Z,100116.34
2023-01-19T02:39:43.250Z,100109.03
2023-01-19T02:42:13.175Z,100108.19
2023-01-19T02:44:40.584Z,100114.47
2023-01-19T02:47:07.533Z,100106.31
2023-01-19T02:49:33.961Z,100113.63
2023-01-19T02:52:01.068Z,100111.75
2023-01-19T02:54:33.290Z,100110.91
2023-01-19T02:57:06.276Z,100106.31
2023-01-19T02:59:48.316Z,100108.19
2023-01-19T03:02:17.661Z,100105.66
2023-01-19T03:04:44.133Z,100109.19
2023-01-19T03:07:19.606Z,100108.19
2023-01-19T03:09:53.268Z,100113.63
2023-01-19T03:12:42.987Z,100120.91
2023-01-19T03:15:29.733Z,100124.47
2023-01-19T03:17:58.161Z,100121.75
2023-01-19T03:20:25.505Z,100123.63
2023-01-19T03:22:55.944Z,100119.41
2023-01-19T03:25:23.262Z,100126.03
2023-01-19T03:27:51.310Z,100120.81
2023-01-19T03:30:26.230Z,100119.78
2023-01-19T03:33:01.572Z,100114.53
2023-01-19T03:35:30.469Z,100123.72
2023-01-19T03:37:58.551Z,100116.59
2023-01-19T03:40:29.431Z,100115.75
2023-01-19T03:42:56.362Z,100119.28
2023-01-19T03:45:23.277Z,100114.91
2023-01-19T03:47:49.798Z,100128.47
2023-01-19T03:50:24.138Z,100130.13
2023-01-19T03:53:13.885Z,100142.03
2023-01-19T03:55:41.918Z,100143.69
2023-01-19T03:58:08.300Z,100141.19
2023-01-19T04:00:36.508Z,100135.75
2023-01-19T04:03:06.957Z,100137.44
2023-01-19T04:05:33.523Z,100142.03
2023-01-19T04:08:00.747Z,100153.72
2023-01-19T04:10:27.136Z,100148.28
2023-01-19T04:12:58.232Z,100143.91
2023-01-19T04:15:25.382Z,100154.56
2023-01-19T04:17:51.799Z,100156.41
2023-01-19T04:20:18.325Z,100166.44
2023-01-19T04:22:44.705Z,100159.34
2023-01-19T04:25:11.097Z,100152.03
2023-01-19T04:27:37.587Z,100154.75
2023-01-19T04:30:04.382Z,100151.19
2023-01-19T04:32:31.848Z,100153.06
2023-01-19T04:34:58.326Z,100150.53
2023-01-19T04:37:24.679Z,100156.97
2023-01-19T04:39:51.012Z,100149.69
2023-01-19T04:42:17.415Z,100152.41
2023-01-19T04:44:43.752Z,100150.53
2023-01-19T04:47:10.286Z,100153.44
2023-01-19T04:49:37.761Z,100162.59
2023-01-19T04:52:07.197Z,100155.50
2023-01-19T04:54:33.717Z,100152.78
2023-01-19T04:57:00.142Z,100153.63
2023-01-19T04:59:26.577Z,100158.22
2023-01-19T05:01:53.021Z,100151.75
2023-01-19T05:04:19.445Z,100153.44
2023-01-19T05:06:45.886Z,100153.44
2023-01-19T05:09:14.160Z,100148.00
2023-01-19T05:11:40.913Z,100146.31
2023-01-19T05:14:07.566Z,100147.16
2023-01-19T05:16:37.265Z,100149.88
2023-01-19T05:19:09.835Z,100146.81
2023-01-19T05:21:39.378Z,100149.97
2023-01-19T05:24:05.987Z,100151.69
2023-01-19T05:26:32.479Z,100146.25
2023-01-19T05:28:58.851Z,100139.78
2023-01-19T05:31:25.440Z,100141.66
2023-01-19T05:33:51.973Z,100140.63
2023-01-19T05:36:18.322Z,100133.69
2023-01-19T05:38:44.712Z,100135.41
2023-01-19T05:41:11.069Z,100128.28
2023-01-19T05:43:37.557Z,100129.31
2023-01-19T05:46:05.171Z,100129.50
2023-01-19T05:48:31.578Z,100136.59
2023-01-19T05:51:01.388Z,100143.06
2023-01-19T05:53:28.589Z,100148.47
2023-01-19T05:55:59.339Z,100156.63
2023-01-19T05:58:25.742Z,100170.19
2023-01-19T06:00:52.190Z,100175.41
2023-01-19T06:03:18.838Z,100173.72
2023-01-19T06:05:45.295Z,100172.69
2023-01-19T06:08:11.621Z,100178.13
2023-01-19T06:10:40.377Z,100183.53
2023-01-19T06:13:13.007Z,100180.84
2023-01-19T06:15:39.486Z,100191.53
2023-01-19T06:18:05.975Z,100194.22
2023-01-19T06:20:32.370Z,100190.47
2023-01-19T06:22:59.161Z,100184.88
2023-01-19T06:25:25.990Z,100185.53
2023-01-19T06:40:55.527Z,100210.44
2023-01-19T06:43:22.308Z,100214.97
2023-01-19T06:45:52.970Z,100204.13
2023-01-19T06:48:19.508Z,100204.13
2023-01-19T06:50:46.327Z,100210.22
2023-01-19T06:53:12.913Z,100204.59
2023-01-19T06:55:39.300Z,100205.44
2023-01-19T06:58:06.552Z,100202.75
2023-01-19T07:00:33.007Z,100217.16
2023-01-19T07:02:59.876Z,100219.50
2023-01-19T07:05:30.049Z,100208.47
2023-01-19T07:07:56.612Z,100221.84
2023-01-19T07:10:23.831Z,100216.63
2023-01-19T07:12:51.952Z,100217.63
2023-01-19T07:15:25.002Z,100222.19
2023-01-19T07:25:03.920Z,100214.91
2023-01-19T07:30:36.143Z,100228.66
2023-01-19T07:33:08.821Z,100227.81
2023-01-19T07:35:38.806Z,100238.47
2023-01-19T07:38:05.329Z,100241.03
2023-01-19T07:40:35.115Z,100239.63
2023-01-19T07:43:02.156Z,100228.59
2023-01-19T07:45:31.926Z,100230.75
2023-01-19T07:47:58.365Z,100237.41
2023-01-19T07:50:27.590Z,100250.69
2023-01-19T07:52:55.410Z,100250.22
2023-01-19T07:58:07.907Z,100253.34
2023-01-19T08:00:35.763Z,100260.81
2023-01-19T08:03:03.655Z,100261.09
2023-01-19T08:05:33.152Z,100257.66
2023-01-19T08:08:01.374Z,100253.00
2023-01-19T08:10:28.298Z,100256.84
2023-01-19T08:12:56.560Z,100256.97
2023-01-19T08:15:24.620Z,100268.09
2023-01-19T08:17:56.915Z,100265.66
2023-01-19T08:20:23.454Z,100265.97
2023-01-19T08:22:53.031Z,100264.56
2023-01-19T08:25:33.228Z,100265.91
2023-01-19T08:28:00.146Z,100261.97
2023-01-19T08:30:26.932Z,100266.84
2023-01-19T08:33:04.119Z,100270.03
2023-01-19T08:35:31.383Z,100274.06
2023-01-19T08:38:15.278Z,100278.28
2023-01-19T08:43:54.118Z,100272.94
2023-01-19T08:46:22.580Z,100280.72
2023-01-19T08:49:07.224Z,100278.47
2023-01-19T08:51:36.108Z,100282.66
2023-01-19T08:59:43.792Z,100278.84
2023-01-19T09:05:20.115Z,100281.84
2023-01-19T09:07:49.633Z,100282.31
2023-01-19T09:10:18.083Z,100292.78
2023-01-19T09:12:47.294Z,100302.44
2023-01-19T09:15:38.721Z,100298.50
2023-01-19T09:24:13.089Z,100301.13
2023-01-19T09:26:40.739Z,100301.97
2023-01-19T09:29:08.510Z,100304.94
2023-01-19T09:31:35.629Z,100310.00
2023-01-19T09:34:02.951Z,100310.66
2023-01-19T09:36:30.552Z,100314.03
2023-01-19T09:38:57.626Z,100304.84
2023-01-19T09:41:26.400Z,100318.91
2023-01-19T09:43:57.642Z,100305.09
2023-01-19T09:46:27.257Z,100302.38
2023-01-19T09:48:56.954Z,100302.88
2023-01-19T09:51:28.047Z,100298.50
2023-01-19T09:54:00.834Z,100298.28
2023-01-19T09:56:32.667Z,100292.66
2023-01-19T09:59:00.259Z,100285.34
2023-01-19T10:01:34.940Z,100288.91
2023-01-19T10:04:21.069Z,100291.63
2023-01-19T10:06:48.700Z,100287.03
2023-01-19T10:09:15.878Z,100287.03
2023-01-19T10:12:07.380Z,100290.59
2023-01-19T10:14:44.574Z,100291.44
2023-01-19T10:17:42.492Z,100286.84
2023-01-19T10:20:40.287Z,100286.84
2023-01-19T10:23:34.189Z,100286.00
2023-01-19T10:26:07.085Z,100280.56
2023-01-19T10:28:34.503Z,100283.28
2023-01-19T10:31:02.654Z,100276.78
2023-01-19T10:33:31.573Z,100279.53
2023-01-19T10:36:01.239Z,100279.34
2023-01-19T10:38:33.343Z,100274.09
2023-01-19T10:41:04.935Z,100278.50
2023-01-19T10:43:34.610Z,100268.47
2023-01-19T10:46:21.383Z,100271.19
2023-01-19T10:48:52.403Z,100271.19
2023-01-19T10:51:21.373Z,100274.75
2023-01-19T10:53:56.921Z,100273.91
2023-01-19T10:56:27.275Z,100276.63
2023-01-19T10:58:57.246Z,100275.78
2023-01-19T11:01:28.259Z,100278.50
2023-01-19T11:03:59.472Z,100274.75
2023-01-19T11:06:27.400Z,100272.03
2023-01-19T11:09:08.929Z,100264.72
2023-01-19T11:11:41.617Z,100278.31
2023-01-19T11:14:10.739Z,100267.44
2023-01-19T11:16:38.764Z,100275.59
2023-01-19T11:19:05.986Z,100281.84
2023-01-19T11:21:33.001Z,100272.88
2023-01-19T11:24:01.003Z,100276.41
2023-01-19T11:26:29.829Z,100275.38
2023-01-19T11:28:57.126Z,100269.09
2023-01-19T11:31:32.063Z,100269.94
2023-01-19T11:34:02.869Z,100266.38
2023-01-19T11:36:30.684Z,100264.50
2023-01-19T11:39:17.431Z,100261.78
2023-01-19T11:41:44.830Z,100260.94
2023-01-19T11:44:11.379Z,100251.75
2023-01-19T11:46:41.032Z,100255.34
2023-01-19T11:49:16.924Z,100259.06
2023-01-19T11:51:55.406Z,100251.75
2023-01-19T11:54:26.321Z,100257.19
2023-01-19T11:56:54.031Z,100254.47
2023-01-19T11:59:21.982Z,100249.22
2023-01-19T12:01:54.719Z,100251.75
2023-01-19T12:04:29.617Z,100247.19
2023-01-19T12:06:57.318Z,100252.63
2023-01-19T12:09:26.901Z,100247.19
2023-01-19T12:11:57.109Z,100244.47
2023-01-19T12:14:27.083Z,100241.75
2023-01-19T12:16:55.181Z,100241.75
2023-01-19T12:19:25.289Z,100249.03
2023-01-19T12:21:52.725Z,100237.97
2023-01-19T12:24:32.614Z,100250.75
2023-01-19T12:27:01.488Z,100245.31
2023-01-19T12:29:30.709Z,100240.03
2023-01-19T12:32:19.260Z,100248.84
2023-01-19T12:34:46.608Z,100252.41
2023-01-19T12:37:31.050Z,100242.75
2023-01-19T12:40:02.429Z,100247.34
2023-01-19T12:42:29.371Z,100249.91
2023-01-19T12:45:14.266Z,100251.75
2023-01-19T12:47:53.009Z,100255.34
2023-01-19T12:50:21.191Z,100258.06
2023-01-19T12:52:51.642Z,100253.47
2023-01-19T12:55:25.540Z,100257.00
2023-01-19T12:58:21.847Z,100257.00
2023-01-19T13:00:50.187Z,100254.28
2023-01-19T13:03:28.913Z,100264.34
2023-01-19T13:05:56.651Z,100252.63
2023-01-19T13:08:49.097Z,100265.16
2023-01-19T13:11:17.705Z,100271.44
2023-01-19T13:13:47.520Z,100271.44
2023-01-19T13:16:20.322Z,100280.44
2023-01-19T13:18:50.433Z,100273.97
2023-01-19T13:21:35.525Z,100267.69
2023-01-19T13:24:06.281Z,100283.16
2023-01-19T13:26:38.744Z,100280.44
2023-01-19T13:29:06.600Z,100276.88
2023-01-19T13:31:39.081Z,100274.16
2023-01-19T13:34:22.792Z,100269.56
2023-01-19T13:37:01.992Z,100266.84
2023-01-19T13:39:30.912Z,100273.97
2023-01-19T13:42:00.783Z,100273.97
2023-01-19T13:44:37.357Z,100280.25
2023-01-19T13:47:07.908Z,100289.44
2023-01-19T13:49:40.116Z,100294.72
2023-01-19T13:52:20.048Z,100299.28
2023-01-19T13:54:51.336Z,100294.88
2023-01-19T13:57:30.973Z,100297.22
2023-01-19T14:05:52.845Z,100302.88
2023-01-19T14:08:19.971Z,100308.31
2023-01-19T14:10:47.653Z,100299.28
2023-01-19T14:16:25.680Z,100314.38
2023-01-19T14:19:02.351Z,100315.41
2023-01-19T14:21:38.161Z,100311.03
2023-01-19T14:24:09.486Z,100312.88
2023-01-19T14:29:39.962Z,100314.56
2023-01-19T14:32:11.741Z,100318.13
2023-01-19T14:34:45.186Z,100315.41
2023-01-19T14:37:30.893Z,100324.41
2023-01-19T14:39:57.514Z,100320.00
2023-01-19T14:42:32.097Z,100316.06
2023-01-19T14:45:04.594Z,100324.22
2023-01-19T14:47:35.423Z,100325.25
2023-01-19T14:50:07.654Z,100327.97
2023-01-19T14:52:38.067Z,100331.53
2023-01-19T14:55:11.432Z,100331.53
2023-01-19T14:57:42.447Z,100326.94
2023-01-19T15:00:17.295Z,100327.78
2023-01-19T15:02:45.857Z,100335.09
2023-01-19T15:05:23.249Z,100335.09
2023-01-19T15:07:56.465Z,100329.84
2023-01-19T15:10:29.429Z,100336.13
2023-01-19T15:12:56.470Z,100333.41
2023-01-19T15:15:33.216Z,100342.41
2023-01-19T15:18:04.425Z,100341.56
2023-01-19T15:20:31.118Z,100345.13
2023-01-19T15:22:57.816Z,100348.69
2023-01-19T15:28:15.993Z,100342.41
2023-01-19T15:30:46.242Z,100340.53
2023-01-19T15:33:21.979Z,100348.69
2023-01-19T15:35:49.283Z,100342.41
2023-01-19T15:38:19.035Z,100352.44
2023-01-19T15:40:51.374Z,100355.16
2023-01-19T15:43:18.553Z,100342.41
2023-01-19T15:48:31.576Z,100356.00
2023-01-19T15:51:16.126Z,100347.84
2023-01-19T15:54:00.661Z,100359.56
2023-01-19T15:56:35.694Z,100352.44
2023-01-19T15:59:02.271Z,100354.31
2023-01-19T16:01:32.823Z,100355.16
2023-01-19T16:04:01.189Z,100357.88
2023-01-19T16:06:27.954Z,100359.75
2023-01-19T16:08:59.228Z,100362.47
2023-01-19T16:11:26.121Z,100360.59
2023-01-19T16:13:53.082Z,100365.19
2023-01-19T16:16:21.019Z,100364.16
2023-01-19T16:18:47.845Z,100364.16
2023-01-19T16:21:14.216Z,100357.03
2023-01-19T16:23:40.669Z,100357.88
2023-01-19T16:26:08.954Z,100362.47
2023-01-19T16:28:35.807Z,100362.47
2023-01-19T16:31:02.380Z,100358.72
2023-01-19T16:33:34.320Z,100363.31
2023-01-19T16:36:17.264Z,100360.59
2023-01-19T16:38:46.735Z,100366.03
2023-01-19T16:41:13.306Z,100367.91
2023-01-19T16:43:40.051Z,100379.84
2023-01-19T16:46:06.779Z,100374.41
2023-01-19T16:48:33.646Z,100377.97
2023-01-19T16:51:04.637Z,100374.41
2023-01-19T16:53:31.918Z,100378.78
2023-01-19T16:55:58.399Z,100385.28
2023-01-19T16:58:24.942Z,100389.66
2023-01-19T17:00:51.490Z,100381.72
2023-01-19T17:03:18.054Z,100375.41
2023-01-19T17:05:48.542Z,100380.69
2023-01-19T17:08:14.967Z,100380.00
2023-01-19T17:10:43.826Z,100382.72
2023-01-19T17:13:13.675Z,100392.59
2023-01-19T17:15:40.704Z,100381.88
2023-01-19T17:18:07.626Z,100386.28
2023-01-19T17:20:34.105Z,100388.16
2023-01-19T17:23:00.979Z,100388.16
2023-01-19T17:25:27.343Z,100400.91
2023-01-19T17:27:53.991Z,100402.59
2023-01-19T17:30:20.791Z,100389.19
2023-01-19T17:32:47.475Z,100387.31
2023-01-19T17:35:13.878Z,100399.88
2023-01-19T17:37:40.855Z,100400.09
2023-01-19T17:40:07.601Z,100401.75
2023-01-19T17:42:34.067Z,100408.03
2023-01-19T17:45:00.581Z,100412.63
2023-01-19T17:47:27.024Z,100410.75
2023-01-19T17:49:53.380Z,100407.19
2023-01-19T17:52:20.026Z,100408.91
2023-01-19T17:54:46.691Z,100410.75
2023-01-19T17:57:13.095Z,100418.06
2023-01-19T17:59:42.959Z,100410.75
2023-01-19T18:02:10.052Z,100417.91
2023-01-19T18:04:39.796Z,100411.63
2023-01-19T18:07:06.218Z,100412.47
2023-01-19T18:09:32.697Z,100414.34
2023-01-19T18:11:59.176Z,100420.63
2023-01-19T18:14:25.639Z,100412.47
2023-01-19T18:16:52.048Z,100418.75
2023-01-19T18:19:21.260Z,100424.19
2023-01-19T18:21:48.374Z,100420.44
2023-01-19T18:24:14.760Z,100420.44
2023-01-19T18:26:42.804Z,100425.88
2023-01-19T18:29:09.314Z,100425.03
2023-01-19T18:31:35.865Z,100428.59
2023-01-19T18:34:02.422Z,100432.13
2023-01-19T18:36:28.956Z,100423.97
2023-01-19T18:38:55.396Z,100426.91
2023-01-19T18:41:21.952Z,100425.88
2023-01-19T18:43:50.616Z,100426.91
2023-01-19T18:46:17.174Z,100420.44
2023-01-19T18:48:44.047Z,100417.72
2023-01-19T18:51:11.711Z,100422.09
2023-01-19T18:53:38.628Z,100431.31
2023-01-19T18:56:05.406Z,100428.59
2023-01-19T18:58:32.533Z,100430.25
2023-01-19T19:01:00.008Z,100430.47
2023-01-19T19:03:27.251Z,100439.47
2023-01-19T19:05:53.941Z,100447.63
2023-01-19T19:08:20.599Z,100441.34
2023-01-19T19:10:47.391Z,100445.94
2023-01-19T19:13:15.047Z,100449.50
2023-01-19T19:15:41.644Z,100455.97
2023-01-19T19:18:13.122Z,100455.78
2023-01-19T19:20:39.857Z,100454.94
2023-01-19T19:23:07.147Z,100466.84
2023-01-19T19:25:36.944Z,100469.56
2023-01-19T19:28:03.882Z,100475.66
2023-01-19T19:30:30.826Z,100481.28
2023-01-19T19:32:59.097Z,100485.69
2023-01-19T19:35:25.548Z,100493.84
2023-01-19T19:37:57.564Z,100495.72
2023-01-19T19:40:25.043Z,100496.56
2023-01-19T19:42:51.469Z,100495.72
2023-01-19T19:45:17.994Z,100499.28
2023-01-19T19:47:51.226Z,100503.88
2023-01-19T19:50:25.286Z,100498.44
2023-01-19T19:52:52.881Z,100507.44
2023-01-19T19:55:19.420Z,100506.59
2023-01-19T19:57:53.843Z,100511.84
2023-01-19T20:00:40.059Z,100521.03
2023-01-19T20:03:13.495Z,100523.75
2023-01-19T20:05:46.389Z,100526.47
2023-01-19T20:11:25.750Z,100526.47
2023-01-19T20:13:52.572Z,100531.91
2023-01-19T20:16:20.361Z,100531.91
2023-01-19T20:18:54.310Z,100531.72
2023-01-19T20:21:28.136Z,100528.34
2023-01-19T20:23:57.437Z,100528.16
2023-01-19T20:26:26.586Z,100528.16
2023-01-19T20:28:56.105Z,100529.19
2023-01-19T20:31:29.776Z,100535.47
2023-01-19T20:33:58.252Z,100533.59
2023-01-19T20:36:25.453Z,100545.31
2023-01-19T20:38:53.061Z,100547.19
2023-01-19T20:41:19.717Z,100555.19
2023-01-19T20:43:46.098Z,100549.75
2023-01-19T20:46:17.894Z,100555.19
2023-01-19T20:48:45.770Z,100558.91
2023-01-19T20:51:13.203Z,100558.91
2023-01-19T20:53:44.050Z,100562.47
2023-01-19T20:56:47.500Z,100564.34
2023-01-19T20:59:28.906Z,100563.34
2023-01-19T21:02:07.954Z,100564.34
2023-01-19T21:04:36.124Z,100562.47
2023-01-19T21:07:06.553Z,100558.06
2023-01-19T21:10:14.419Z,100569.78
2023-01-19T21:12:40.812Z,100569.78
2023-01-19T21:15:07.504Z,100575.22
2023-01-19T21:17:33.952Z,100585.09
2023-01-19T21:20:00.388Z,100593.25
2023-01-19T21:22:26.898Z,100586.09
2023-01-19T21:24:53.475Z,100592.78
2023-01-19T21:27:19.834Z,100599.41
2023-01-19T21:29:47.716Z,100594.19
2023-01-19T21:32:14.366Z,100593.50
2023-01-19T21:34:42.848Z,100594.53
2023-01-19T21:37:09.320Z,100592.03
2023-01-19T21:39:35.739Z,100591.19
2023-01-19T21:42:02.207Z,100593.03
2023-01-19T21:44:28.706Z,100599.50
2023-01-19T21:46:55.772Z,100608.50
2023-01-19T21:49:22.242Z,100607.00
2023-01-19T21:51:50.627Z,100614.50
2023-01-19T21:54:17.097Z,100617.53
2023-01-19T21:56:43.631Z,100623.34
2023-01-19T21:59:12.907Z,100624.56
2023-01-19T22:01:39.487Z,100637.50
2023-01-19T22:04:06.034Z,100628.84
2023-01-19T22:06:32.869Z,100639.06
2023-01-19T22:09:00.660Z,100637.56
2023-01-19T22:11:27.573Z,100639.59
2023-01-19T22:13:54.130Z,100644.38
2023-01-19T22:16:21.486Z,100645.59
2023-01-19T22:18:59.528Z,100657.50
2023-01-19T22:21:27.877Z,100650.53
2023-01-19T22:23:55.992Z,100655.31
2023-01-19T22:26:22.756Z,100668.22
2023-01-19T22:28:52.785Z,100671.13
2023-01-19T22:31:19.173Z,100669.59
2023-01-19T22:33:45.637Z,100667.72
2023-01-19T22:36:15.083Z,100683.38
2023-01-19T22:38:42.246Z,100678.13
2023-01-19T22:41:12.633Z,100676.41
2023-01-19T22:43:39.124Z,100679.34
2023-01-19T22:46:08.530Z,100683.06
2023-01-19T22:48:35.122Z,100687.66
2023-01-19T22:51:01.493Z,100680.53
2023-01-19T22:53:27.913Z,100682.59
2023-01-19T22:55:54.314Z,100681.75
2023-01-19T22:58:21.578Z,100685.50
2023-01-19T23:00:48.114Z,100691.09
2023-01-19T23:03:14.593Z,100690.94
2023-01-19T23:05:41.039Z,100696.16
2023-01-19T23:08:07.502Z,100695.31
2023-01-19T23:10:34.895Z,100696.16
2023-01-19T23:13:01.265Z,100699.06
2023-01-19T23:15:27.823Z,100702.78
2023-01-19T23:17:54.272Z,100704.84
2023-01-19T23:20:20.702Z,100698.59
2023-01-19T23:22:47.160Z,100699.59
2023-01-19T23:25:13.867Z,100700.63
2023-01-19T23:27:40.317Z,100710.63
2023-01-19T23:30:07.933Z,100708.09
2023-01-19T23:32:34.350Z,100709.09
2023-01-19T23:35:00.704Z,100705.56
2023-01-19T23:37:27.088Z,100708.44
2023-01-19T23:39:53.488Z,100715.75
2023-01-19T23:42:19.991Z,100714.91
2023-01-19T23:44:46.349Z,100719.66
2023-01-19T23:47:12.819Z,100717.13
2023-01-19T23:49:40.142Z,100717.13
2023-01-19T23:52:06.485Z,100726.13
2023-01-19T23:54:33.005Z,100727.81
2023-01-19T23:56:59.426Z,100735.97
2023-01-19T23:59:25.859Z,100728.66
